sensor_id;sensor_type;location;lat;lon;timestamp;P1;durP1;ratioP1;P2;durP2;ratioP2
22449;SDS011;11392;57.390;-2.468;2023-04-16T00:02:08;11.35;;;5.90;;
22449;SDS011;11392;57.390;-2.468;2023-04-16T00:04:35;21.23;;;6.10;;
22449;SDS011;11392;57.390;-2.468;2023-04-16T00:07:03;15.43;;;6.35;;
22449;SDS011;11392;57.390;-2.468;2023-04-16T00:09:30;14.32;;;6.18;;
22449;SDS011;11392;57.390;-2.468;2023-04-16T00:11:57;13.57;;;6.35;;
22449;SDS011;11392;57.390;-2.468;2023-04-16T00:14:24;17.60;;;6.55;;
22449;SDS011;11392;57.390;-2.468;2023-04-16T00:16:52;9.93;;;5.82;;
22449;SDS011;11392;57.390;-2.468;2023-04-16T00:19:19;18.80;;;7.38;;
22449;SDS011;11392;57.390;-2.468;2023-04-16T00:21:46;17.52;;;7.40;;
22449;SDS011;11392;57.390;-2.468;2023-04-16T00:24:13;17.55;;;5.95;;
22449;SDS011;11392;57.390;-2.468;2023-04-16T00:26:40;19.15;;;6.53;;
22449;SDS011;11392;57.390;-2.468;2023-04-16T00:29:09;11.95;;;6.60;;
22449;SDS011;11392;57.390;-2.468;2023-04-16T00:31:36;16.35;;;6.85;;
22449;SDS011;11392;57.390;-2.468;2023-04-16T00:34:04;15.23;;;7.00;;
22449;SDS011;11392;57.390;-2.468;2023-04-16T00:36:31;15.05;;;6.47;;
22449;SDS011;11392;57.390;-2.468;2023-04-16T00:38:59;15.70;;;6.32;;
22449;SDS011;11392;57.390;-2.468;2023-04-16T00:41:26;16.80;;;6.78;;
22449;SDS011;11392;57.390;-2.468;2023-04-16T00:43:53;13.38;;;6.50;;
22449;SDS011;11392;57.390;-2.468;2023-04-16T00:46:20;20.02;;;6.40;;
22449;SDS011;11392;57.390;-2.468;2023-04-16T00:48:50;13.02;;;6.60;;
22449;SDS011;11392;57.390;-2.468;2023-04-16T00:51:19;19.92;;;8.75;;
22449;SDS011;11392;57.390;-2.468;2023-04-16T00:53:47;22.73;;;7.10;;
22449;SDS011;11392;57.390;-2.468;2023-04-16T00:56:14;18.80;;;7.45;;
22449;SDS011;11392;57.390;-2.468;2023-04-16T00:58:42;13.13;;;6.43;;
22449;SDS011;11392;57.390;-2.468;2023-04-16T01:01:10;18.17;;;8.85;;
22449;SDS011;11392;57.390;-2.468;2023-04-16T01:03:38;23.60;;;9.25;;
22449;SDS011;11392;57.390;-2.468;2023-04-16T01:06:12;14.52;;;7.75;;
22449;SDS011;11392;57.390;-2.468;2023-04-16T01:08:40;18.17;;;8.98;;
22449;SDS011;11392;57.390;-2.468;2023-04-16T01:11:08;12.30;;;6.88;;
22449;SDS011;11392;57.390;-2.468;2023-04-16T01:13:36;14.15;;;7.35;;
22449;SDS011;11392;57.390;-2.468;2023-04-16T01:16:10;17.77;;;7.60;;
22449;SDS011;11392;57.390;-2.468;2023-04-16T01:18:38;17.35;;;7.18;;
22449;SDS011;11392;57.390;-2.468;2023-04-16T01:21:05;18.88;;;8.40;;
22449;SDS011;11392;57.390;-2.468;2023-04-16T01:23:32;15.40;;;8.38;;
22449;SDS011;11392;57.390;-2.468;2023-04-16T01:25:59;16.60;;;8.45;;
22449;SDS011;11392;57.390;-2.468;2023-04-16T01:28:26;19.30;;;7.97;;
22449;SDS011;11392;57.390;-2.468;2023-04-16T01:30:53;16.50;;;9.55;;
22449;SDS011;11392;57.390;-2.468;2023-04-16T01:33:20;13.13;;;7.82;;
22449;SDS011;11392;57.390;-2.468;2023-04-16T01:35:48;20.10;;;8.55;;
22449;SDS011;11392;57.390;-2.468;2023-04-16T01:38:15;14.40;;;7.70;;
22449;SDS011;11392;57.390;-2.468;2023-04-16T01:40:42;15.23;;;7.57;;
22449;SDS011;11392;57.390;-2.468;2023-04-16T01:43:09;12.32;;;7.10;;
22449;SDS011;11392;57.390;-2.468;2023-04-16T01:45:36;14.27;;;8.07;;
22449;SDS011;11392;57.390;-2.468;2023-04-16T01:48:03;20.38;;;9.90;;
22449;SDS011;11392;57.390;-2.468;2023-04-16T01:50:31;16.63;;;9.20;;
22449;SDS011;11392;57.390;-2.468;2023-04-16T01:52:59;15.90;;;9.30;;
22449;SDS011;11392;57.390;-2.468;2023-04-16T01:55:31;15.98;;;9.60;;
22449;SDS011;11392;57.390;-2.468;2023-04-16T01:57:59;20.00;;;8.43;;
22449;SDS011;11392;57.390;-2.468;2023-04-16T02:00:26;22.10;;;9.25;;
22449;SDS011;11392;57.390;-2.468;2023-04-16T02:02:53;18.30;;;10.15;;
22449;SDS011;11392;57.390;-2.468;2023-04-16T02:05:20;24.52;;;11.38;;
22449;SDS011;11392;57.390;-2.468;2023-04-16T02:07:47;23.45;;;10.38;;
22449;SDS011;11392;57.390;-2.468;2023-04-16T02:10:14;21.15;;;10.35;;
22449;SDS011;11392;57.390;-2.468;2023-04-16T02:12:41;18.58;;;10.25;;
22449;SDS011;11392;57.390;-2.468;2023-04-16T02:15:08;16.08;;;10.00;;
22449;SDS011;11392;57.390;-2.468;2023-04-16T02:17:36;21.48;;;10.00;;
22449;SDS011;11392;57.390;-2.468;2023-04-16T02:20:03;19.25;;;10.45;;
22449;SDS011;11392;57.390;-2.468;2023-04-16T02:22:33;23.60;;;12.35;;
22449;SDS011;11392;57.390;-2.468;2023-04-16T02:25:00;15.80;;;10.07;;
22449;SDS011;11392;57.390;-2.468;2023-04-16T02:27:27;22.48;;;10.75;;
22449;SDS011;11392;57.390;-2.468;2023-04-16T02:29:54;26.75;;;11.07;;
22449;SDS011;11392;57.390;-2.468;2023-04-16T02:32:21;24.10;;;11.30;;
22449;SDS011;11392;57.390;-2.468;2023-04-16T02:34:48;18.50;;;9.88;;
22449;SDS011;11392;57.390;-2.468;2023-04-16T02:37:16;21.25;;;9.93;;
22449;SDS011;11392;57.390;-2.468;2023-04-16T02:39:43;19.10;;;10.38;;
22449;SDS011;11392;57.390;-2.468;2023-04-16T02:42:10;20.38;;;9.40;;
22449;SDS011;11392;57.390;-2.468;2023-04-16T02:44:38;19.85;;;10.38;;
22449;SDS011;11392;57.390;-2.468;2023-04-16T02:47:04;22.58;;;10.82;;
22449;SDS011;11392;57.390;-2.468;2023-04-16T02:49:32;20.60;;;10.80;;
22449;SDS011;11392;57.390;-2.468;2023-04-16T02:51:59;17.55;;;10.48;;
22449;SDS011;11392;57.390;-2.468;2023-04-16T02:54:26;24.85;;;11.63;;
22449;SDS011;11392;57.390;-2.468;2023-04-16T02:56:53;19.90;;;11.15;;
22449;SDS011;11392;57.390;-2.468;2023-04-16T02:59:20;17.67;;;10.82;;
22449;SDS011;11392;57.390;-2.468;2023-04-16T03:01:47;18.55;;;9.80;;
22449;SDS011;11392;57.390;-2.468;2023-04-16T03:04:14;25.58;;;10.43;;
22449;SDS011;11392;57.390;-2.468;2023-04-16T03:06:41;21.02;;;11.20;;
22449;SDS011;11392;57.390;-2.468;2023-04-16T03:09:08;16.52;;;10.68;;
22449;SDS011;11392;57.390;-2.468;2023-04-16T03:11:35;18.58;;;9.75;;
22449;SDS011;11392;57.390;-2.468;2023-04-16T03:14:02;18.52;;;10.57;;
22449;SDS011;11392;57.390;-2.468;2023-04-16T03:16:29;13.80;;;9.27;;
22449;SDS011;11392;57.390;-2.468;2023-04-16T03:18:56;21.98;;;10.32;;
22449;SDS011;11392;57.390;-2.468;2023-04-16T03:21:23;19.65;;;10.57;;
22449;SDS011;11392;57.390;-2.468;2023-04-16T03:23:52;20.73;;;10.60;;
22449;SDS011;11392;57.390;-2.468;2023-04-16T03:26:21;15.82;;;10.45;;
22449;SDS011;11392;57.390;-2.468;2023-04-16T03:28:48;20.00;;;10.20;;
22449;SDS011;11392;57.390;-2.468;2023-04-16T03:31:15;16.60;;;10.13;;
22449;SDS011;11392;57.390;-2.468;2023-04-16T03:33:42;21.23;;;10.15;;
22449;SDS011;11392;57.390;-2.468;2023-04-16T03:36:10;15.38;;;9.43;;
22449;SDS011;11392;57.390;-2.468;2023-04-16T03:38:37;13.50;;;8.98;;
22449;SDS011;11392;57.390;-2.468;2023-04-16T03:41:04;17.85;;;9.57;;
22449;SDS011;11392;57.390;-2.468;2023-04-16T03:43:31;19.55;;;8.90;;
22449;SDS011;11392;57.390;-2.468;2023-04-16T03:45:58;18.45;;;9.88;;
22449;SDS011;11392;57.390;-2.468;2023-04-16T03:48:25;13.85;;;8.80;;
22449;SDS011;11392;57.390;-2.468;2023-04-16T03:50:52;14.50;;;8.55;;
22449;SDS011;11392;57.390;-2.468;2023-04-16T03:53:19;15.10;;;8.73;;
22449;SDS011;11392;57.390;-2.468;2023-04-16T03:55:49;15.50;;;9.80;;
22449;SDS011;11392;57.390;-2.468;2023-04-16T03:58:17;18.48;;;8.50;;
22449;SDS011;11392;57.390;-2.468;2023-04-16T04:00:44;15.73;;;8.38;;
22449;SDS011;11392;57.390;-2.468;2023-04-16T04:03:12;11.93;;;8.40;;
22449;SDS011;11392;57.390;-2.468;2023-04-16T04:05:42;14.65;;;8.32;;
22449;SDS011;11392;57.390;-2.468;2023-04-16T04:08:09;18.05;;;8.50;;
22449;SDS011;11392;57.390;-2.468;2023-04-16T04:10:36;15.68;;;8.13;;
22449;SDS011;11392;57.390;-2.468;2023-04-16T04:13:04;18.33;;;8.77;;
22449;SDS011;11392;57.390;-2.468;2023-04-16T04:15:32;14.23;;;8.85;;
22449;SDS011;11392;57.390;-2.468;2023-04-16T04:17:59;20.27;;;9.25;;
22449;SDS011;11392;57.390;-2.468;2023-04-16T04:20:26;16.20;;;9.10;;
22449;SDS011;11392;57.390;-2.468;2023-04-16T04:22:53;17.58;;;8.75;;
22449;SDS011;11392;57.390;-2.468;2023-04-16T04:25:20;16.02;;;8.68;;
22449;SDS011;11392;57.390;-2.468;2023-04-16T04:27:47;16.27;;;9.10;;
22449;SDS011;11392;57.390;-2.468;2023-04-16T04:30:14;19.83;;;8.60;;
22449;SDS011;11392;57.390;-2.468;2023-04-16T04:32:41;10.70;;;7.72;;
22449;SDS011;11392;57.390;-2.468;2023-04-16T04:35:08;15.48;;;8.85;;
22449;SDS011;11392;57.390;-2.468;2023-04-16T04:37:35;15.40;;;8.40;;
22449;SDS011;11392;57.390;-2.468;2023-04-16T04:40:02;15.80;;;8.60;;
22449;SDS011;11392;57.390;-2.468;2023-04-16T04:42:30;23.67;;;10.43;;
22449;SDS011;11392;57.390;-2.468;2023-04-16T04:44:57;17.75;;;9.68;;
22449;SDS011;11392;57.390;-2.468;2023-04-16T04:47:24;16.83;;;10.25;;
22449;SDS011;11392;57.390;-2.468;2023-04-16T04:49:51;18.25;;;8.38;;
22449;SDS011;11392;57.390;-2.468;2023-04-16T04:52:18;19.05;;;8.82;;
22449;SDS011;11392;57.390;-2.468;2023-04-16T04:54:46;17.08;;;9.27;;
22449;SDS011;11392;57.390;-2.468;2023-04-16T04:57:13;23.50;;;11.90;;
22449;SDS011;11392;57.390;-2.468;2023-04-16T04:59:40;15.70;;;8.27;;
22449;SDS011;11392;57.390;-2.468;2023-04-16T05:02:07;17.58;;;9.35;;
22449;SDS011;11392;57.390;-2.468;2023-04-16T05:04:34;14.15;;;8.32;;
22449;SDS011;11392;57.390;-2.468;2023-04-16T05:07:01;16.52;;;8.80;;
22449;SDS011;11392;57.390;-2.468;2023-04-16T05:09:29;15.07;;;8.10;;
22449;SDS011;11392;57.390;-2.468;2023-04-16T05:11:56;17.10;;;8.90;;
22449;SDS011;11392;57.390;-2.468;2023-04-16T05:14:23;15.77;;;9.02;;
22449;SDS011;11392;57.390;-2.468;2023-04-16T05:16:50;20.88;;;8.82;;
22449;SDS011;11392;57.390;-2.468;2023-04-16T05:19:17;12.48;;;7.95;;
22449;SDS011;11392;57.390;-2.468;2023-04-16T05:21:44;11.02;;;7.68;;
22449;SDS011;11392;57.390;-2.468;2023-04-16T05:24:11;11.63;;;7.63;;
22449;SDS011;11392;57.390;-2.468;2023-04-16T05:26:40;20.08;;;9.52;;
22449;SDS011;11392;57.390;-2.468;2023-04-16T05:29:07;16.55;;;8.35;;
22449;SDS011;11392;57.390;-2.468;2023-04-16T05:31:34;16.40;;;9.07;;
22449;SDS011;11392;57.390;-2.468;2023-04-16T05:34:01;18.58;;;8.32;;
22449;SDS011;11392;57.390;-2.468;2023-04-16T05:36:28;13.75;;;8.18;;
22449;SDS011;11392;57.390;-2.468;2023-04-16T05:38:55;14.88;;;8.15;;
22449;SDS011;11392;57.390;-2.468;2023-04-16T05:41:22;16.10;;;9.30;;
22449;SDS011;11392;57.390;-2.468;2023-04-16T05:43:49;11.60;;;7.82;;
22449;SDS011;11392;57.390;-2.468;2023-04-16T05:46:16;10.27;;;7.88;;
22449;SDS011;11392;57.390;-2.468;2023-04-16T05:48:44;15.13;;;7.95;;
22449;SDS011;11392;57.390;-2.468;2023-04-16T05:51:11;13.23;;;8.20;;
22449;SDS011;11392;57.390;-2.468;2023-04-16T05:53:38;12.30;;;7.90;;
22449;SDS011;11392;57.390;-2.468;2023-04-16T05:56:05;12.57;;;7.22;;
22449;SDS011;11392;57.390;-2.468;2023-04-16T05:58:32;10.98;;;7.65;;
22449;SDS011;11392;57.390;-2.468;2023-04-16T06:00:59;13.10;;;7.18;;
22449;SDS011;11392;57.390;-2.468;2023-04-16T06:03:27;14.48;;;7.10;;
22449;SDS011;11392;57.390;-2.468;2023-04-16T06:05:54;12.48;;;7.32;;
22449;SDS011;11392;57.390;-2.468;2023-04-16T06:08:21;15.40;;;7.63;;
22449;SDS011;11392;57.390;-2.468;2023-04-16T06:10:48;13.65;;;7.60;;
22449;SDS011;11392;57.390;-2.468;2023-04-16T06:13:15;15.90;;;6.43;;
22449;SDS011;11392;57.390;-2.468;2023-04-16T06:15:42;9.68;;;6.97;;
22449;SDS011;11392;57.390;-2.468;2023-04-16T06:18:09;15.38;;;6.97;;
22449;SDS011;11392;57.390;-2.468;2023-04-16T06:20:36;8.93;;;6.50;;
22449;SDS011;11392;57.390;-2.468;2023-04-16T06:23:03;13.40;;;6.68;;
22449;SDS011;11392;57.390;-2.468;2023-04-16T06:25:30;13.80;;;6.78;;
22449;SDS011;11392;57.390;-2.468;2023-04-16T06:27:57;11.77;;;6.93;;
22449;SDS011;11392;57.390;-2.468;2023-04-16T06:30:24;11.63;;;6.40;;
22449;SDS011;11392;57.390;-2.468;2023-04-16T06:32:51;12.27;;;5.90;;
22449;SDS011;11392;57.390;-2.468;2023-04-16T06:35:19;10.93;;;6.18;;
22449;SDS011;11392;57.390;-2.468;2023-04-16T06:37:46;10.95;;;5.53;;
22449;SDS011;11392;57.390;-2.468;2023-04-16T06:40:13;12.02;;;4.85;;
22449;SDS011;11392;57.390;-2.468;2023-04-16T06:42:40;14.70;;;5.32;;
22449;SDS011;11392;57.390;-2.468;2023-04-16T06:45:10;11.48;;;5.25;;
22449;SDS011;11392;57.390;-2.468;2023-04-16T06:47:38;7.45;;;4.35;;
22449;SDS011;11392;57.390;-2.468;2023-04-16T06:50:05;6.82;;;4.28;;
22449;SDS011;11392;57.390;-2.468;2023-04-16T06:52:33;7.72;;;4.40;;
22449;SDS011;11392;57.390;-2.468;2023-04-16T06:55:00;8.95;;;4.32;;
22449;SDS011;11392;57.390;-2.468;2023-04-16T06:57:27;8.50;;;4.07;;
22449;SDS011;11392;57.390;-2.468;2023-04-16T06:59:54;4.65;;;3.20;;
22449;SDS011;11392;57.390;-2.468;2023-04-16T07:02:22;5.97;;;3.15;;
22449;SDS011;11392;57.390;-2.468;2023-04-16T07:04:49;10.80;;;3.80;;
22449;SDS011;11392;57.390;-2.468;2023-04-16T07:07:17;5.13;;;2.63;;
22449;SDS011;11392;57.390;-2.468;2023-04-16T07:09:44;2.83;;;2.40;;
22449;SDS011;11392;57.390;-2.468;2023-04-16T07:12:11;6.82;;;2.55;;
22449;SDS011;11392;57.390;-2.468;2023-04-16T07:14:38;6.07;;;2.53;;
22449;SDS011;11392;57.390;-2.468;2023-04-16T07:17:06;5.32;;;2.58;;
22449;SDS011;11392;57.390;-2.468;2023-04-16T07:19:33;3.05;;;2.10;;
22449;SDS011;11392;57.390;-2.468;2023-04-16T07:22:00;8.02;;;2.40;;
22449;SDS011;11392;57.390;-2.468;2023-04-16T07:24:28;5.20;;;3.00;;
22449;SDS011;11392;57.390;-2.468;2023-04-16T07:26:55;4.10;;;2.00;;
22449;SDS011;11392;57.390;-2.468;2023-04-16T07:29:22;3.10;;;1.88;;
22449;SDS011;11392;57.390;-2.468;2023-04-16T07:31:49;3.83;;;1.70;;
22449;SDS011;11392;57.390;-2.468;2023-04-16T07:34:17;3.67;;;1.60;;
22449;SDS011;11392;57.390;-2.468;2023-04-16T07:36:44;2.63;;;1.50;;
22449;SDS011;11392;57.390;-2.468;2023-04-16T07:39:11;3.28;;;1.45;;
22449;SDS011;11392;57.390;-2.468;2023-04-16T07:41:38;1.55;;;1.38;;
22449;SDS011;11392;57.390;-2.468;2023-04-16T07:44:06;2.58;;;1.27;;
22449;SDS011;11392;57.390;-2.468;2023-04-16T07:46:33;3.95;;;1.40;;
22449;SDS011;11392;57.390;-2.468;2023-04-16T07:49:11;2.55;;;1.35;;
22449;SDS011;11392;57.390;-2.468;2023-04-16T07:51:38;4.28;;;2.38;;
22449;SDS011;11392;57.390;-2.468;2023-04-16T07:54:06;4.90;;;1.98;;
22449;SDS011;11392;57.390;-2.468;2023-04-16T07:56:33;2.25;;;1.50;;
22449;SDS011;11392;57.390;-2.468;2023-04-16T07:59:00;2.50;;;1.33;;
22449;SDS011;11392;57.390;-2.468;2023-04-16T08:01:46;2.38;;;1.20;;
22449;SDS011;11392;57.390;-2.468;2023-04-16T08:04:13;2.13;;;1.17;;
22449;SDS011;11392;57.390;-2.468;2023-04-16T08:06:42;1.75;;;1.00;;
22449;SDS011;11392;57.390;-2.468;2023-04-16T08:09:09;1.83;;;1.17;;
22449;SDS011;11392;57.390;-2.468;2023-04-16T08:11:37;2.97;;;1.10;;
22449;SDS011;11392;57.390;-2.468;2023-04-16T08:14:04;3.20;;;1.30;;
22449;SDS011;11392;57.390;-2.468;2023-04-16T08:16:31;1.30;;;0.93;;
22449;SDS011;11392;57.390;-2.468;2023-04-16T08:18:59;1.55;;;1.08;;
22449;SDS011;11392;57.390;-2.468;2023-04-16T08:21:26;5.18;;;1.27;;
22449;SDS011;11392;57.390;-2.468;2023-04-16T08:23:53;1.58;;;1.05;;
22449;SDS011;11392;57.390;-2.468;2023-04-16T08:26:20;0.85;;;0.80;;
22449;SDS011;11392;57.390;-2.468;2023-04-16T08:28:47;3.15;;;1.25;;
22449;SDS011;11392;57.390;-2.468;2023-04-16T08:31:14;3.03;;;1.20;;
22449;SDS011;11392;57.390;-2.468;2023-04-16T08:33:42;1.65;;;1.10;;
22449;SDS011;11392;57.390;-2.468;2023-04-16T08:36:09;1.85;;;1.10;;
22449;SDS011;11392;57.390;-2.468;2023-04-16T08:38:36;2.58;;;0.90;;
22449;SDS011;11392;57.390;-2.468;2023-04-16T08:41:04;0.98;;;0.85;;
22449;SDS011;11392;57.390;-2.468;2023-04-16T08:43:35;3.25;;;1.50;;
22449;SDS011;11392;57.390;-2.468;2023-04-16T08:46:04;2.05;;;0.88;;
22449;SDS011;11392;57.390;-2.468;2023-04-16T08:48:32;1.85;;;1.00;;
22449;SDS011;11392;57.390;-2.468;2023-04-16T08:51:00;2.20;;;1.02;;
22449;SDS011;11392;57.390;-2.468;2023-04-16T08:56:35;2.25;;;1.00;;
22449;SDS011;11392;57.390;-2.468;2023-04-16T08:59:02;2.58;;;1.00;;
22449;SDS011;11392;57.390;-2.468;2023-04-16T09:01:32;1.40;;;0.88;;
22449;SDS011;11392;57.390;-2.468;2023-04-16T09:04:01;1.35;;;0.75;;
22449;SDS011;11392;57.390;-2.468;2023-04-16T09:06:29;2.05;;;0.90;;
22449;SDS011;11392;57.390;-2.468;2023-04-16T09:08:56;1.75;;;0.82;;
22449;SDS011;11392;57.390;-2.468;2023-04-16T09:11:25;2.08;;;0.80;;
22449;SDS011;11392;57.390;-2.468;2023-04-16T09:13:53;1.02;;;0.70;;
22449;SDS011;11392;57.390;-2.468;2023-04-16T09:16:21;2.55;;;0.80;;
22449;SDS011;11392;57.390;-2.468;2023-04-16T09:18:50;2.35;;;0.82;;
22449;SDS011;11392;57.390;-2.468;2023-04-16T09:21:17;3.40;;;0.82;;
22449;SDS011;11392;57.390;-2.468;2023-04-16T09:23:49;0.80;;;0.65;;
22449;SDS011;11392;57.390;-2.468;2023-04-16T09:26:18;1.08;;;0.60;;
22449;SDS011;11392;57.390;-2.468;2023-04-16T09:28:47;1.42;;;0.95;;
22449;SDS011;11392;57.390;-2.468;2023-04-16T09:31:17;2.15;;;1.10;;
22449;SDS011;11392;57.390;-2.468;2023-04-16T09:36:32;1.80;;;1.10;;
22449;SDS011;11392;57.390;-2.468;2023-04-16T09:39:00;1.08;;;0.95;;
22449;SDS011;11392;57.390;-2.468;2023-04-16T09:41:28;1.95;;;0.80;;
22449;SDS011;11392;57.390;-2.468;2023-04-16T09:43:57;1.58;;;0.70;;
22449;SDS011;11392;57.390;-2.468;2023-04-16T09:46:36;1.15;;;0.80;;
22449;SDS011;11392;57.390;-2.468;2023-04-16T09:49:07;1.17;;;0.68;;
22449;SDS011;11392;57.390;-2.468;2023-04-16T09:51:36;2.22;;;1.10;;
22449;SDS011;11392;57.390;-2.468;2023-04-16T09:54:06;2.70;;;0.85;;
22449;SDS011;11392;57.390;-2.468;2023-04-16T09:56:43;1.48;;;0.70;;
22449;SDS011;11392;57.390;-2.468;2023-04-16T09:59:18;3.28;;;0.80;;
22449;SDS011;11392;57.390;-2.468;2023-04-16T10:01:46;0.73;;;0.70;;
22449;SDS011;11392;57.390;-2.468;2023-04-16T10:04:45;4.10;;;0.80;;
22449;SDS011;11392;57.390;-2.468;2023-04-16T10:07:17;2.50;;;1.08;;
22449;SDS011;11392;57.390;-2.468;2023-04-16T10:09:45;0.68;;;0.60;;
22449;SDS011;11392;57.390;-2.468;2023-04-16T10:12:17;1.52;;;0.93;;
22449;SDS011;11392;57.390;-2.468;2023-04-16T10:14:45;2.50;;;0.90;;
22449;SDS011;11392;57.390;-2.468;2023-04-16T10:17:15;0.77;;;0.50;;
22449;SDS011;11392;57.390;-2.468;2023-04-16T10:19:44;2.22;;;1.00;;
22449;SDS011;11392;57.390;-2.468;2023-04-16T10:22:11;1.35;;;0.80;;
22449;SDS011;11392;57.390;-2.468;2023-04-16T10:24:39;1.02;;;0.60;;
22449;SDS011;11392;57.390;-2.468;2023-04-16T10:27:07;1.15;;;0.60;;
22449;SDS011;11392;57.390;-2.468;2023-04-16T10:29:34;2.22;;;0.80;;
22449;SDS011;11392;57.390;-2.468;2023-04-16T10:32:02;1.23;;;0.80;;
22449;SDS011;11392;57.390;-2.468;2023-04-16T10:34:31;1.33;;;0.80;;
22449;SDS011;11392;57.390;-2.468;2023-04-16T10:36:58;0.88;;;0.85;;
22449;SDS011;11392;57.390;-2.468;2023-04-16T10:39:27;1.23;;;0.50;;
22449;SDS011;11392;57.390;-2.468;2023-04-16T10:42:07;2.25;;;0.82;;
22449;SDS011;11392;57.390;-2.468;2023-04-16T10:44:35;1.33;;;0.75;;
22449;SDS011;11392;57.390;-2.468;2023-04-16T10:47:08;1.98;;;1.05;;
22449;SDS011;11392;57.390;-2.468;2023-04-16T10:49:37;1.02;;;0.70;;
22449;SDS011;11392;57.390;-2.468;2023-04-16T10:52:14;1.45;;;0.60;;
22449;SDS011;11392;57.390;-2.468;2023-04-16T10:54:45;3.45;;;0.70;;
22449;SDS011;11392;57.390;-2.468;2023-04-16T10:57:16;3.20;;;0.80;;
22449;SDS011;11392;57.390;-2.468;2023-04-16T10:59:45;1.50;;;0.57;;
22449;SDS011;11392;57.390;-2.468;2023-04-16T11:02:14;1.00;;;0.90;;
22449;SDS011;11392;57.390;-2.468;2023-04-16T11:04:44;0.88;;;0.77;;
22449;SDS011;11392;57.390;-2.468;2023-04-16T11:07:16;0.95;;;0.80;;
22449;SDS011;11392;57.390;-2.468;2023-04-16T11:10:03;0.88;;;0.80;;
22449;SDS011;11392;57.390;-2.468;2023-04-16T11:12:36;1.85;;;0.70;;
22449;SDS011;11392;57.390;-2.468;2023-04-16T11:15:08;2.30;;;0.80;;
22449;SDS011;11392;57.390;-2.468;2023-04-16T11:17:43;2.40;;;0.70;;
22449;SDS011;11392;57.390;-2.468;2023-04-16T11:20:16;1.60;;;0.77;;
22449;SDS011;11392;57.390;-2.468;2023-04-16T11:22:49;1.42;;;0.65;;
22449;SDS011;11392;57.390;-2.468;2023-04-16T11:25:24;3.25;;;0.90;;
22449;SDS011;11392;57.390;-2.468;2023-04-16T11:27:52;2.38;;;0.98;;
22449;SDS011;11392;57.390;-2.468;2023-04-16T11:30:30;2.35;;;1.05;;
22449;SDS011;11392;57.390;-2.468;2023-04-16T11:33:03;1.90;;;1.23;;
22449;SDS011;11392;57.390;-2.468;2023-04-16T11:35:34;1.70;;;0.60;;
22449;SDS011;11392;57.390;-2.468;2023-04-16T11:38:04;1.38;;;0.80;;
22449;SDS011;11392;57.390;-2.468;2023-04-16T11:40:34;2.00;;;0.82;;
22449;SDS011;11392;57.390;-2.468;2023-04-16T11:43:02;1.50;;;0.70;;
22449;SDS011;11392;57.390;-2.468;2023-04-16T11:45:54;2.08;;;0.68;;
22449;SDS011;11392;57.390;-2.468;2023-04-16T11:48:48;1.20;;;0.57;;
22449;SDS011;11392;57.390;-2.468;2023-04-16T11:51:16;1.25;;;0.73;;
22449;SDS011;11392;57.390;-2.468;2023-04-16T11:53:53;2.28;;;0.82;;
22449;SDS011;11392;57.390;-2.468;2023-04-16T11:56:28;1.25;;;0.70;;
22449;SDS011;11392;57.390;-2.468;2023-04-16T12:01:36;2.08;;;0.85;;
22449;SDS011;11392;57.390;-2.468;2023-04-16T12:04:04;3.17;;;0.98;;
22449;SDS011;11392;57.390;-2.468;2023-04-16T12:06:32;1.75;;;0.75;;
22449;SDS011;11392;57.390;-2.468;2023-04-16T12:09:00;2.03;;;0.60;;
22449;SDS011;11392;57.390;-2.468;2023-04-16T12:11:55;3.42;;;0.82;;
22449;SDS011;11392;57.390;-2.468;2023-04-16T12:14:22;1.13;;;0.70;;
22449;SDS011;11392;57.390;-2.468;2023-04-16T12:16:49;2.10;;;1.15;;
22449;SDS011;11392;57.390;-2.468;2023-04-16T12:19:16;1.80;;;0.65;;
22449;SDS011;11392;57.390;-2.468;2023-04-16T12:21:45;0.77;;;0.57;;
22449;SDS011;11392;57.390;-2.468;2023-04-16T12:24:14;1.30;;;0.80;;
22449;SDS011;11392;57.390;-2.468;2023-04-16T12:26:46;1.30;;;0.70;;
22449;SDS011;11392;57.390;-2.468;2023-04-16T12:31:47;1.05;;;0.70;;
22449;SDS011;11392;57.390;-2.468;2023-04-16T12:34:15;0.93;;;0.60;;
22449;SDS011;11392;57.390;-2.468;2023-04-16T12:36:43;0.65;;;0.52;;
22449;SDS011;11392;57.390;-2.468;2023-04-16T12:39:11;5.45;;;0.80;;
22449;SDS011;11392;57.390;-2.468;2023-04-16T12:41:40;1.17;;;0.52;;
22449;SDS011;11392;57.390;-2.468;2023-04-16T12:44:09;2.00;;;0.68;;
22449;SDS011;11392;57.390;-2.468;2023-04-16T12:46:38;0.90;;;0.60;;
22449;SDS011;11392;57.390;-2.468;2023-04-16T12:49:06;0.73;;;0.73;;
22449;SDS011;11392;57.390;-2.468;2023-04-16T12:51:35;2.10;;;1.48;;
22449;SDS011;11392;57.390;-2.468;2023-04-16T12:54:03;0.95;;;0.93;;
22449;SDS011;11392;57.390;-2.468;2023-04-16T12:56:31;1.27;;;0.60;;
22449;SDS011;11392;57.390;-2.468;2023-04-16T12:58:59;1.60;;;0.70;;
22449;SDS011;11392;57.390;-2.468;2023-04-16T13:01:26;1.60;;;0.73;;
22449;SDS011;11392;57.390;-2.468;2023-04-16T13:03:53;1.08;;;0.95;;
22449;SDS011;11392;57.390;-2.468;2023-04-16T13:06:20;2.47;;;1.35;;
22449;SDS011;11392;57.390;-2.468;2023-04-16T13:08:47;1.63;;;1.38;;
22449;SDS011;11392;57.390;-2.468;2023-04-16T13:11:14;1.90;;;1.30;;
22449;SDS011;11392;57.390;-2.468;2023-04-16T13:13:42;2.08;;;1.48;;
22449;SDS011;11392;57.390;-2.468;2023-04-16T13:16:09;1.58;;;1.02;;
22449;SDS011;11392;57.390;-2.468;2023-04-16T13:18:36;1.77;;;1.15;;
22449;SDS011;11392;57.390;-2.468;2023-04-16T13:21:03;2.53;;;0.80;;
22449;SDS011;11392;57.390;-2.468;2023-04-16T13:23:30;2.13;;;0.80;;
22449;SDS011;11392;57.390;-2.468;2023-04-16T13:25:58;0.98;;;0.65;;
22449;SDS011;11392;57.390;-2.468;2023-04-16T13:28:25;1.15;;;0.98;;
22449;SDS011;11392;57.390;-2.468;2023-04-16T13:30:52;2.28;;;0.88;;
22449;SDS011;11392;57.390;-2.468;2023-04-16T13:33:19;1.55;;;0.88;;
22449;SDS011;11392;57.390;-2.468;2023-04-16T13:35:49;1.70;;;1.10;;
22449;SDS011;11392;57.390;-2.468;2023-04-16T13:38:17;1.23;;;0.70;;
22449;SDS011;11392;57.390;-2.468;2023-04-16T13:40:44;1.92;;;0.90;;
22449;SDS011;11392;57.390;-2.468;2023-04-16T13:43:11;2.05;;;1.30;;
22449;SDS011;11392;57.390;-2.468;2023-04-16T13:45:39;1.95;;;1.50;;
22449;SDS011;11392;57.390;-2.468;2023-04-16T13:48:06;2.67;;;1.35;;
22449;SDS011;11392;57.390;-2.468;2023-04-16T13:50:34;1.95;;;1.20;;
22449;SDS011;11392;57.390;-2.468;2023-04-16T13:53:00;2.17;;;1.20;;
22449;SDS011;11392;57.390;-2.468;2023-04-16T13:55:29;1.85;;;0.80;;
22449;SDS011;11392;57.390;-2.468;2023-04-16T13:57:57;1.27;;;0.77;;
22449;SDS011;11392;57.390;-2.468;2023-04-16T14:00:24;1.88;;;1.00;;
22449;SDS011;11392;57.390;-2.468;2023-04-16T14:02:52;2.38;;;1.25;;
22449;SDS011;11392;57.390;-2.468;2023-04-16T14:05:19;0.75;;;0.63;;
22449;SDS011;11392;57.390;-2.468;2023-04-16T14:07:51;1.17;;;0.70;;
22449;SDS011;11392;57.390;-2.468;2023-04-16T14:10:17;1.80;;;0.73;;
22449;SDS011;11392;57.390;-2.468;2023-04-16T14:12:45;0.60;;;0.60;;
22449;SDS011;11392;57.390;-2.468;2023-04-16T14:15:12;0.98;;;0.60;;
22449;SDS011;11392;57.390;-2.468;2023-04-16T14:17:43;1.20;;;0.80;;
22449;SDS011;11392;57.390;-2.468;2023-04-16T14:20:11;1.00;;;0.75;;
22449;SDS011;11392;57.390;-2.468;2023-04-16T14:22:39;0.93;;;0.82;;
22449;SDS011;11392;57.390;-2.468;2023-04-16T14:25:07;1.23;;;1.10;;
22449;SDS011;11392;57.390;-2.468;2023-04-16T14:27:34;1.17;;;0.88;;
22449;SDS011;11392;57.390;-2.468;2023-04-16T14:30:01;0.80;;;0.70;;
22449;SDS011;11392;57.390;-2.468;2023-04-16T14:32:29;2.03;;;0.60;;
22449;SDS011;11392;57.390;-2.468;2023-04-16T14:34:56;0.63;;;0.43;;
22449;SDS011;11392;57.390;-2.468;2023-04-16T14:37:23;0.70;;;0.55;;
22449;SDS011;11392;57.390;-2.468;2023-04-16T14:39:51;1.17;;;0.50;;
22449;SDS011;11392;57.390;-2.468;2023-04-16T14:42:19;1.38;;;0.50;;
22449;SDS011;11392;57.390;-2.468;2023-04-16T14:44:47;0.57;;;0.40;;
22449;SDS011;11392;57.390;-2.468;2023-04-16T14:47:14;1.40;;;0.30;;